Terminal Aerodrome Forecast
Issued by NWS

Home | Current Version | Previous Version | Text Only | Print | Product List | Glossary On
Versions: 1 2 3 4 5 6 7 8 9 10 11 12
000
FTUS41 KCAR 122300
TAFBHB
TAF
KBHB 122320Z 1300/1324 19007KT P6SM SKC
     FM130600 18005KT 4SM BR SCT004
     FM131200 18010KT P6SM FEW010 BKN100
     FM131800 19013G20KT P6SM BKN080
      AMD LTD TO CLD VIS AND WIND=

USA.gov is the U.S. government's official web portal to all federal, state and local government web resources and services.